ADDS METAR Data INFO
IDs: Format: Raw Decoded Include TAF

Data at: 0317 UTC 20 Jul 2018

KGMJ 200255Z AUTO 12004KT 10SM CLR 28/20 A2985 RMK AO2 LTG DSNT NW
KGMJ 200235Z AUTO 09004KT 10SM CLR 28/20 A2985 RMK AO2
KGMJ 200215Z AUTO 09006KT 10SM CLR 28/20 A2986 RMK AO2
KGMJ 200155Z AUTO 08007KT 10SM VCTS CLR 28/20 A2986 RMK AO2 LTG DSNT NW
KGMJ 200135Z AUTO 07007KT 10SM CLR 29/20 A2986 RMK AO2
KGMJ 200115Z AUTO 07011G21KT 10SM SCT070 30/19 A2986 RMK AO2
KGMJ 200055Z AUTO 07015G23KT 10SM CLR 32/20 A2986 RMK AO2 LTG DSNT E
KGMJ 200035Z AUTO 12003KT 10SM CLR 35/21 A2983 RMK AO2
KGMJ 200015Z AUTO 14004KT 10SM CLR 36/21 A2981 RMK AO2 LTG DSNT E
KGMJ 192355Z AUTO 11003KT 10SM CLR 36/21 A2983 RMK AO2 LTG DSNT NE AND E
KGMJ 192335Z AUTO 08003KT 10SM VCTS CLR 37/20 A2983 RMK AO2 LTG DSNT NE
KGMJ 192315Z AUTO 07003KT 10SM CLR 37/19 A2983 RMK AO2 LTG DSNT NE
KGMJ 192255Z AUTO 08006KT 10SM CLR 37/20 A2983 RMK AO2
KGMJ 192235Z AUTO 07005KT 10SM CLR 37/22 A2984 RMK AO2 LTG DSNT N
KGMJ 192215Z AUTO 10005KT 10SM CLR 37/21 A2982 RMK AO2 LTG DSNT NW
KGMJ 192155Z AUTO 09004KT 10SM CLR 37/21 A2982 RMK AO2
KGMJ 192135Z AUTO 09004KT 10SM CLR 37/21 A2983 RMK AO2 LTG DSNT NE AND NW
KGMJ 192115Z AUTO 06003KT 10SM CLR 37/20 A2985 RMK AO2
KGMJ 192055Z AUTO 07003KT 10SM CLR 36/21 A2986 RMK AO2 LTG DSNT NE
KGMJ 192035Z AUTO 00000KT 10SM CLR 36/21 A2986 RMK AO2
KGMJ 192015Z AUTO 00000KT 10SM CLR 35/22 A2987 RMK AO2 LTG DSNT NW
KGMJ 191955Z AUTO 00000KT 10SM CLR 35/21 A2987 RMK AO2 LTG DSNT NW
KGMJ 191935Z AUTO 00000KT 10SM CLR 36/22 A2987 RMK AO2
KGMJ 191915Z AUTO 00000KT 10SM CLR 35/23 A2986 RMK AO2 LTG DSNT N
KGMJ 191855Z AUTO 00000KT 10SM CLR 34/23 A2987 RMK AO2
KGMJ 191835Z AUTO 00000KT 10SM CLR 33/23 A2988 RMK AO2
KGMJ 191815Z AUTO 06003KT 10SM CLR 33/23 A2989 RMK AO2
KGMJ 191755Z AUTO 00000KT 10SM CLR 33/23 A2989 RMK AO2
KGMJ 191735Z AUTO 00000KT 10SM CLR 33/23 A2989 RMK AO2
KGMJ 191715Z AUTO 00000KT 10SM CLR 32/23 A2988 RMK AO2
KGMJ 191655Z AUTO 25003KT 10SM CLR 32/23 A2989 RMK AO2
KGMJ 191635Z AUTO 23003KT 10SM CLR 31/23 A2989 RMK AO2
KGMJ 191615Z AUTO 22003KT 10SM CLR 31/23 A2988 RMK AO2
KGMJ 191555Z AUTO 20005KT 10SM CLR 31/23 A2989 RMK AO2
KGMJ 191535Z AUTO 18005KT 10SM CLR 31/23 A2989 RMK AO2
KGMJ 191515Z AUTO 20006KT 10SM CLR 30/23 A2990 RMK AO2
KGMJ 191455Z AUTO 18004KT 10SM CLR 30/23 A2990 RMK AO2
KGMJ 191435Z AUTO 16003KT 10SM CLR 28/24 A2991 RMK AO2
KGMJ 191415Z AUTO 00000KT 7SM CLR 27/24 A2991 RMK AO2
KGMJ 191355Z AUTO 00000KT 10SM CLR 26/23 A2992 RMK AO2
KGMJ 191335Z AUTO 10003KT 7SM CLR 25/23 A2992 RMK AO2
KGMJ 191315Z AUTO 08003KT 7SM CLR 25/23 A2992 RMK AO2
KGMJ 191255Z AUTO 08003KT 7SM CLR 23/23 A2992 RMK AO2
KGMJ 191235Z AUTO 00000KT 5SM BR CLR 23/23 A2992 RMK AO2
KGMJ 191215Z AUTO 00000KT 5SM BR CLR 23/22 A2992 RMK AO2 LTG DSNT E
KGMJ 191155Z AUTO 00000KT 4SM BR CLR 22/22 A2992 RMK AO2
KGMJ 191135Z AUTO 00000KT 5SM BR CLR 22/22 A2990 RMK AO2
KGMJ 191115Z AUTO 00000KT 4SM BR CLR 22/22 A2990 RMK AO2
KGMJ 191055Z AUTO 00000KT 5SM BR CLR 22/22 A2989 RMK AO2
KGMJ 191035Z AUTO 00000KT 4SM BR CLR 22/22 A2990 RMK AO2
KGMJ 191015Z AUTO 00000KT 3SM BR CLR 22/22 A2990 RMK AO2
KGMJ 190955Z AUTO 00000KT 4SM BR CLR 22/22 A2991 RMK AO2
KGMJ 190935Z AUTO 00000KT 5SM BR CLR 23/22 A2991 RMK AO2
KGMJ 190915Z AUTO 00000KT 4SM BR CLR 23/22 A2991 RMK AO2
KGMJ 190855Z AUTO 00000KT 5SM BR CLR 23/22 A2991 RMK AO2
KGMJ 190835Z AUTO 00000KT 5SM BR CLR 23/22 A2991 RMK AO2
KGMJ 190815Z AUTO 00000KT 7SM CLR 23/22 A2991 RMK AO2
KGMJ 190755Z AUTO 00000KT 7SM CLR 23/22 A2992 RMK AO2
KGMJ 190735Z AUTO 00000KT 7SM CLR 23/22 A2992 RMK AO2
KGMJ 190715Z AUTO 00000KT 7SM CLR 23/22 A2993 RMK AO2
KGMJ 190655Z AUTO 00000KT 7SM CLR 23/22 A2993 RMK AO2
KGMJ 190635Z AUTO 00000KT 10SM CLR 24/22 A2994 RMK AO2
KGMJ 190615Z AUTO 00000KT 10SM CLR 24/23 A2994 RMK AO2
KGMJ 190555Z AUTO 00000KT 10SM CLR 24/23 A2994 RMK AO2
KGMJ 190535Z AUTO 00000KT 10SM CLR 24/23 A2994 RMK AO2
KGMJ 190515Z AUTO 00000KT 10SM CLR 25/23 A2994 RMK AO2
KGMJ 190455Z AUTO 00000KT 10SM CLR 25/22 A2994 RMK AO2
KGMJ 190435Z AUTO 00000KT 10SM CLR 25/22 A2993 RMK AO2
KGMJ 190420Z AUTO 00000KT 10SM CLR 26/22 A2993 RMK AO2
KGMJ 190355Z AUTO 00000KT 10SM CLR 26/22 A2993 RMK AO2
KGMJ 190335Z AUTO 00000KT 10SM CLR 26/22 A2993 RMK AO2
KGMJ 190315Z AUTO 00000KT 10SM CLR 26/22 A2992 RMK AO2
KGMJ 190255Z AUTO 00000KT 10SM CLR 26/22 A2992 RMK AO2
KGMJ 190235Z AUTO 16004KT 10SM CLR 27/23 A2991 RMK AO2
KGMJ 190215Z AUTO 15003KT 10SM CLR 27/23 A2991 RMK AO2
KGMJ 190155Z AUTO 00000KT 10SM CLR 28/22 A2991 RMK AO2
KGMJ 190135Z AUTO 15003KT 10SM CLR 28/22 A2990 RMK AO2
KGMJ 190115Z AUTO 00000KT 10SM CLR 30/22 A2990 RMK AO2
KGMJ 190055Z AUTO 00000KT 10SM CLR 30/22 A2991 RMK AO2
KGMJ 190035Z AUTO 00000KT 10SM CLR 30/22 A2991 RMK AO2
KGMJ 190015Z AUTO 00000KT 10SM CLR 30/22 A2991 RMK AO2
KGMJ 182355Z AUTO 16003KT 10SM CLR 32/22 A2991 RMK AO2
KGMJ 182335Z AUTO 16004KT 10SM CLR 32/22 A2991 RMK AO2
KGMJ 182315Z AUTO 00000KT 10SM CLR 31/23 A2991 RMK AO2
KGMJ 182255Z AUTO 00000KT 10SM CLR 31/22 A2991 RMK AO2
KGMJ 182235Z AUTO 00000KT 10SM CLR 31/22 A2991 RMK AO2
KGMJ 182215Z AUTO 23003KT 10SM CLR 32/22 A2991 RMK AO2
KGMJ 182155Z AUTO 00000KT 10SM SCT100 SCT120 31/22 A2993 RMK AO2
KGMJ 182135Z AUTO 15004KT 10SM SCT100 30/22 A2993 RMK AO2 LTG DSNT E
KGMJ 182115Z AUTO 16004KT 10SM CLR 30/22 A2994 RMK AO2 LTG DSNT E
KGMJ 182055Z AUTO 14004KT 10SM SCT037 31/22 A2993 RMK AO2
KGMJ 182035Z AUTO 19004KT 10SM SCT110 31/22 A2994 RMK AO2
KGMJ 182015Z AUTO 16007KT 10SM SCT110 32/22 A2995 RMK AO2
KGMJ 181955Z AUTO 00000KT 10SM SCT110 31/22 A2996 RMK AO2
KGMJ 181935Z AUTO 00000KT 10SM SCT110 31/22 A2996 RMK AO2
KGMJ 181915Z AUTO 00000KT 10SM SCT110 31/22 A2997 RMK AO2
KGMJ 181855Z AUTO 15003KT 10SM SCT085 BKN110 30/22 A2996 RMK AO2
KGMJ 181835Z AUTO 23004KT 10SM SCT095 SCT110 30/22 A2998 RMK AO2
KGMJ 181815Z AUTO 16004KT 10SM CLR 30/23 A2997 RMK AO2
KGMJ 181755Z AUTO 08004KT 10SM CLR 28/24 A2998 RMK AO2
KGMJ 181735Z AUTO 00000KT 10SM CLR 27/23 A2998 RMK AO2 LTG DSNT E
KGMJ 181715Z AUTO 00000KT 10SM CLR 27/23 A2999 RMK AO2
KGMJ 181655Z AUTO 08005KT 10SM SCT120 27/23 A2998 RMK AO2
KGMJ 181635Z AUTO 12004KT 10SM CLR 26/23 A2998 RMK AO2
KGMJ 181615Z AUTO 00000KT 10SM -RA SCT120 26/23 A3000 RMK AO2
KGMJ 181555Z AUTO 00000KT 10SM CLR 25/23 A3001 RMK AO2
KGMJ 181535Z AUTO 00000KT 10SM -DZ CLR 25/23 A3000 RMK AO2